Tiempo atmosférico en la estación meteorológica de Candeleda, Ávila (350 m.)



Fecha
DESCASC
Temp. máxima en grados centígrados (hora)
DESCASC
Temp. mínima en grados centígrados (hora)
DESCASC
Temp. media en grados centígrados
DESCASC
Racha de viento máxima en m/sg (hora)
DESCASC
Velocidad máxima media en intervalos de 10 minutos(hora)
DESCASC
Precipitaciones diarias en mm
DESCASC
Precipitaciones de 00:00 a 06:00 en mm
DESCASC
Precipitaciones de 06:00 a 12:00 en mm
DESCASC
Precipitaciones de 12:00 a 18:00 en mm
DESCASC
Precipitaciones de 18:00 a 24:00 en mm
DESCASC
18-01-2018 16.2 (16:10) 1.9 (07:40) 9.1 3.61 (13:10) 2.22 (21:10) 0 0 0 0 0
17-01-2018 14.7 (16:50) 3.8 (01:20) 9.2 3.89 (04:40) 2.5 (19:10) 0 0 0 0 0
16-01-2018 13.6 (16:30) 0.4 (08:00) 7 3.61 (13:40) 1.94 (13:10) 0 0 0 0 0
15-01-2018 10.3 (16:40) -2.5 (08:50) 3.9 3.89 (15:50) 2.22 (17:10) 0 0 0 0 0
14-01-2018 8 (17:40) 0.5 (00:00) 4.3 4.17 (15:20) 2.22 (15:20) 0 0 0 0 0
13-01-2018 5.9 (16:40) 0.5 (00:00) 3.2 4.17 (13:10) 2.78 (13:10) 6.6 0 2.4 4.2 0
12-01-2018 10.7 (14:30) -1.8 (-00:0) 4.4 3.89 (14:10) 2.22 (15:00) 0 0 0 0 0
11-01-2018 11.5 (16:40) 2.4 (00:00) 7 14.72 (19:00) 9.44 (17:50) 0 0 0 0 0
10-01-2018 9.4 (20:30) 4.4 (00:00) 6.9 9.72 (20:10) 6.67 (22:00) 6 0.6 0.2 5.2 0
09-01-2018 5.6 (16:40) -0.9 (-00:0) 2.3 3.33 (16:00) 2.22 (16:00) 5.2 0 0 1.6 3.6
08-01-2018 10.2 (15:40) 0.3 (00:00) 5.2 6.94 (00:20) 4.72 (00:20) 1.2 1.2 0 0 0
07-01-2018 8.3 (14:40) 3.1 (00:00) 5.7 9.17 (23:59) 5.28 (23:59) 7 0 0 0.8 6.2
06-01-2018 8.3 (16:10) 5.4 (00:00) 6.9 11.67 (22:00) 6.94 (22:10) 1.2 1.2 0 0 0
05-01-2018 10.9 (04:10) 8 (00:00) 9.4 8.61 (06:00) 5.83 (06:30) 31.2 0 3 23.2 5
04-01-2018 13.8 (16:40) 10.4 (07:50) 12.1 6.11 (22:30) 3.89 (22:20) 0 0 0 0 0
03-01-2018 12.2 (16:40) 10.2 (00:00) 11.2 3.61 (07:40) 2.22 (07:40) 0 0 0 0 0
02-01-2018 13.7 (16:00) 5.3 (00:00) 9.5 4.72 (06:10) 2.5 (07:50) 0 0 0 0 0
01-01-2018 13.3 (16:40) 1.1 (00:00) 7.2 10.28 (00:20) 5.56 (00:20) 0 0 0 0 0
31-12-2017 11.4 (19:40) 6.4 (00:00) 8.9 13.89 (19:20) 8.61 (19:40) 3 0 0 3 0
30-12-2017 16.8 (14:50) 9.5 (00:00) 13.1 4.17 (13:20) 2.5 (13:20) 0 0 0 0 0
29-12-2017 17.7 (15:40) 8.5 (00:00) 13.1 5.83 (14:00) 3.06 (15:30) 0 0 0 0 0
28-12-2017 16.4 (17:10) 8 (00:00) 12.2 15.83 (15:20) 8.61 (15:20) 0 0 0 0 0
27-12-2017 13.5 (14:10) 8.1 (00:00) 10.8 18.33 (06:50) 9.72 (05:50) 3.6 3.6 0 0 0
26-12-2017 8.6 (15:20) 5.7 (00:00) 7.2 7.5 (17:20) 4.44 (17:20) 23.2 3.6 0 0.2 19.4
25-12-2017 6.4 (23:40) 0.3 (00:00) 3.4 3.61 (22:00) 1.67 (11:50) 13.6 0 0 2.4 11.2
24-12-2017 14 (15:50) 0.8 (00:00) 7.4 3.61 (14:10) 2.22 (20:40) 0 0 0 0 0

Gráficas

Temp. máximas Temp. mínimas Temp. medias Precipitaciones Rachas de viento máximas Velocidades máximas media en intervalos de 10 minutos

Datos horarios

Fecha y hora oficial Temperatura (ºC) Velocidad del viento (km/h) Dirección del viento Racha (km/h) Dirección de racha Precipitación (mm) Presión (hPa) Tendencia (hPa) Humedad (%)
2018-01-22 23:00:00 6 0 Calma 4 Norte 0 -- -- 96
2018-01-22 22:00:00 5.9 2 Norte 6 Nordeste 0 -- -- 95
2018-01-22 21:00:00 7.2 3 Nordeste 6 Norte 0 -- -- 90
2018-01-22 20:00:00 8.4 5 Norte 8 Norte 0 -- -- 86
2018-01-22 19:00:00 10.2 2 Norte 4 Sudeste 0 -- -- 81
2018-01-22 18:00:00 13.3 3 Sur 11 Sudoeste 0 -- -- 70
2018-01-22 17:00:00 14.1 6 Sudoeste 14 Sudoeste 0 -- -- 67
2018-01-22 16:00:00 14.2 6 Sudoeste 15 Sur 0 -- -- 68
2018-01-22 15:00:00 13.8 6 Sudoeste 15 Sudoeste 0 -- -- 69
2018-01-22 14:00:00 13.2 6 Sur 14 Sur 0 -- -- 70
2018-01-22 13:00:00 12.2 5 Sur 10 Sur 0 -- -- 76
2018-01-22 12:00:00 10.7 3 Sur 6 Este 0 -- -- 81
2018-01-22 11:00:00 7.8 2 Sur 3 Sur 0 -- -- 100
2018-01-22 10:00:00 4 0 Calma 3 Sudeste 0 -- -- 100
2018-01-22 09:00:00 2.5 0 Calma 4 Este 0 -- -- 100
2018-01-22 08:00:00 2.6 3 Este 5 Este 0 -- -- 98
2018-01-22 07:00:00 3.4 0 Calma 3 Sudoeste 0 -- -- 98
2018-01-22 06:00:00 3.6 2 Nordeste 6 Este 0 -- -- 98
2018-01-22 05:00:00 4.5 3 Nordeste 5 Este 0 -- -- 98
2018-01-22 04:00:00 4.5 2 Nordeste 9 Este 0 -- -- 98
2018-01-22 03:00:00 4.4 6 Este 8 Este 0 -- -- 96
2018-01-22 02:00:00 5.5 0 Calma 4 Nordeste 0 -- -- 95
2018-01-22 01:00:00 5.1 5 Nordeste 6 Este 0 -- -- 95
2018-01-22 00:00:00 6.2 2 Nordeste 7 Nordeste 0 -- -- 93
2018-01-21 23:00:00 6.7 3 Nordeste 5 Nordeste 0 -- -- 92
2018-01-21 22:00:00 7.6 2 Nordeste 8 Sudeste 0 -- -- 88
2018-01-21 21:00:00 10 3 Norte 5 Nordeste 0 -- -- 79
2018-01-21 20:00:00 10.3 4 Norte 9 Norte 0 -- -- 77
2018-01-21 19:00:00 11.8 2 Norte 4 Norte 0 -- -- 70
2018-01-21 18:00:00 15 3 Sur 8 Este 0 -- -- 60
2018-01-21 17:00:00 15.6 5 Sudeste 11 Sudeste 0 -- -- 59
2018-01-21 16:00:00 16.1 6 Sur 12 Sur 0 -- -- 58
2018-01-21 15:00:00 15.5 7 Sur 13 Sudeste 0 -- -- 61
2018-01-21 14:00:00 14.7 5 Sur 11 Sudeste 0 -- -- 62
2018-01-21 13:00:00 13.2 2 Norte 8 Sudeste 0 -- -- 66
2018-01-21 12:00:00 12.2 2 Sur 7 Sudeste 0 -- -- 68
2018-01-21 11:00:00 10.1 3 Sudeste 8 Sudeste 0 -- -- 76
2018-01-21 10:00:00 5.8 2 Este 4 Este 0 -- -- 88
2018-01-21 09:00:00 2.7 0 Calma 6 Este 0 -- -- 97
2018-01-21 08:00:00 2.4 4 Este 6 Nordeste 0 -- -- 96
2018-01-21 07:00:00 2.5 2 Nordeste 6 Este 0 -- -- 95
2018-01-21 06:00:00 2.9 5 Este 7 Este 0 -- -- 93
2018-01-21 05:00:00 3.5 3 Nordeste 10 Este 0 -- -- 91
2018-01-21 04:00:00 4.7 2 Noroeste 8 Este 0 -- -- 89
2018-01-21 03:00:00 4.2 5 Este 9 Este 0 -- -- 89
2018-01-21 02:00:00 4.6 3 Noroeste 8 Este 0 -- -- 87
2018-01-21 01:00:00 5.4 0 Calma 8 Nordeste 0 -- -- 85
2018-01-21 00:00:00 5.8 3 Nordeste 9 Nordeste 0 -- -- 85
2018-01-20 23:00:00 6.4 6 Nordeste 10 Nordeste 0 -- -- 84
2018-01-20 22:00:00 6.6 5 Este 9 Este 0 -- -- 83
2018-01-20 21:00:00 7.2 6 Este 10 Este 0 -- -- 82
2018-01-20 20:00:00 9.1 2 Este 9 Noroeste 0 -- -- 71
2018-01-20 19:00:00 8.8 4 Oeste 10 Oeste 0 -- -- 78
2018-01-20 18:00:00 11.2 5 Nordeste 17 Este 0 -- -- 68
2018-01-20 17:00:00 11.4 2 Este 8 Este 0 -- -- 67
2018-01-20 16:00:00 11.5 5 Este 11 Este 0 -- -- 67
2018-01-20 15:00:00 10.1 0 Calma 6 Sudeste 0 -- -- 72
2018-01-20 14:00:00 8.8 3 Sudoeste 8 Sur 0 -- -- 78
2018-01-20 13:00:00 8.6 3 Sur 5 Sur 0 -- -- 77
2018-01-20 12:00:00 8.5 2 Sudeste 6 Sudeste 0 -- -- 74
2018-01-20 11:00:00 7 0 Calma 10 Este 0 -- -- 78
2018-01-20 10:00:00 4.8 0 Calma 12 Norte 0 -- -- 90
2018-01-20 09:00:00 1.7 4 Este 8 Este 0 -- -- 92
2018-01-20 08:00:00 2.4 5 Norte 10 Noroeste 0 -- -- 94
2018-01-20 07:00:00 2 2 Norte 9 Este 0 -- -- 89
2018-01-20 06:00:00 2.2 4 Este 14 Este 0 -- -- 90
2018-01-20 05:00:00 2.8 3 Nordeste 9 Norte 0 -- -- 86
2018-01-20 04:00:00 3.1 4 Oeste 8 Noroeste 0 -- -- 86
2018-01-20 03:00:00 3.4 2 Oeste 10 Sudeste 0 -- -- 85
2018-01-20 02:00:00 5.2 4 Nordeste 6 Este 0 -- -- 77
2018-01-20 01:00:00 5.4 0 Calma 10 Norte 0 -- -- 74
2018-01-20 00:00:00 4.3 6 Nordeste 10 Este 0 -- -- 84
2018-01-19 23:00:00 5.5 0 Calma 10 Oeste 0 -- -- 74
2018-01-19 22:00:00 7 5 Norte 13 Este 0 -- -- 75
2018-01-19 21:00:00 6.8 5 Nordeste 10 Este 0 -- -- 79
2018-01-19 20:00:00 9.5 5 Norte 11 Norte 0 -- -- 68
2018-01-19 19:00:00 10.9 2 Norte 6 Noroeste 0 -- -- 65
2018-01-19 18:00:00 14.8 2 Sur 8 Sudeste 0 -- -- 53
2018-01-19 17:00:00 16.5 3 Sur 10 Sur 0 -- -- 43
2018-01-19 16:00:00 16.2 3 Sudoeste 11 Sur 0 -- -- 45
2018-01-19 15:00:00 15.6 5 Sur 10 Sur 0 -- -- 44
2018-01-19 14:00:00 14.6 5 Sur 9 Sur 0 -- -- 53
2018-01-19 13:00:00 11.8 0 Calma 9 Oeste 0 -- -- 66
2018-01-19 12:00:00 9.5 6 Sudoeste 10 Sur 0 -- -- 73
2018-01-19 11:00:00 7.1 3 Sur 6 Sudoeste 0 -- -- 79
2018-01-19 10:00:00 4.5 0 Calma 4 Noroeste 0 -- -- 91
2018-01-19 09:00:00 1.2 2 Norte 7 Este 0 -- -- 94
2018-01-19 08:00:00 1.7 4 Este 8 Este 0 -- -- 94
2018-01-19 07:00:00 2.8 0 Calma 8 Noroeste 0 -- -- 88
2018-01-19 06:00:00 1.7 2 Este 5 Sur 0 -- -- 91
2018-01-19 05:00:00 2.4 0 Calma 6 Este 0 -- -- 90
2018-01-19 04:00:00 2.8 5 Este 10 Este 0 -- -- 89
2018-01-19 03:00:00 3.3 3 Nordeste 5 Nordeste 0 -- -- 90
2018-01-19 02:00:00 4.6 2 Nordeste 5 Norte 0 -- -- 85
2018-01-19 01:00:00 5 0 Calma 8 Noroeste 0 -- -- 86
2018-01-19 00:00:00 4.6 3 Este 8 Este 0 -- -- 87
2018-01-18 23:00:00 6 2 Norte 9 Este 0 -- -- 82
2018-01-18 22:00:00 6.8 2 Este 11 Norte 0 -- -- 78
2018-01-18 21:00:00 9.2 5 Norte 10 Norte 0 -- -- 69
2018-01-18 20:00:00 8.8 5 Norte 8 Norte 0 -- -- 70
2018-01-18 19:00:00 10.8 5 Norte 8 Norte 0 -- -- 63
2018-01-18 18:00:00 15.4 2 Sur 5 Sudeste 0 -- -- 48
2018-01-18 17:00:00 16 3 Sudeste 7 Sudeste 0 -- -- 45
2018-01-18 16:00:00 15.8 3 Oeste 8 Este 0 -- -- 43
2018-01-18 15:00:00 15.5 3 Sudeste 8 Sur 0 -- -- 44
2018-01-18 14:00:00 14.1 5 Este 13 Sudeste 0 -- -- 48
2018-01-18 13:00:00 13.2 6 Sudeste 10 Este 0 -- -- 52
2018-01-18 12:00:00 11.9 3 Sudeste 7 Sudeste 0 -- -- 59
2018-01-18 11:00:00 7.7 3 Este 10 Este 0 -- -- 78
2018-01-18 10:00:00 4.1 3 Este 10 Este 0 -- -- 88
2018-01-18 09:00:00 2.5 4 Noroeste 11 Noroeste 0 -- -- 90
2018-01-18 08:00:00 1.9 6 Norte 9 Norte 0 -- -- 90
2018-01-18 07:00:00 2.3 4 Sudeste 7 Noroeste 0 -- -- 90
2018-01-18 06:00:00 2.4 4 Este 8 Norte 0 -- -- 90
2018-01-18 05:00:00 3.1 3 Noroeste 6 Este 0 -- -- 90
2018-01-18 04:00:00 2.7 4 Nordeste 9 Este 0 -- -- 91
2018-01-18 03:00:00 3 4 Nordeste 8 Este 0 -- -- 95
2018-01-18 02:00:00 3.3 3 Este 5 Sudeste 0 -- -- 90
2018-01-18 01:00:00 4.2 0 Calma 9 Este 0 -- -- 94
2018-01-18 00:00:00 4.6 6 Este 8 Este 0 -- -- 89
2018-01-17 23:00:00 6.1 3 Norte 5 Norte 0 -- -- 97
2018-01-17 22:00:00 6.5 2 Norte 5 Norte 0 -- -- 95
2018-01-17 21:00:00 7.2 2 Norte 5 Noroeste 0 -- -- 91
2018-01-17 20:00:00 8.6 2 Noroeste 10 Noroeste 0 -- -- 85
2018-01-17 19:00:00 10.9 8 Noroeste 10 Noroeste 0 -- -- 73
2018-01-17 18:00:00 14.1 3 Oeste 5 Oeste 0 -- -- 66
2018-01-17 17:00:00 14.6 4 Sudoeste 8 Sudoeste 0 -- -- 63
2018-01-17 16:00:00 14.2 4 Sudoeste 11 Sur 0 -- -- 71
2018-01-17 15:00:00 13.1 6 Sur 13 Sudeste 0 -- -- 75
2018-01-17 14:00:00 11.9 5 Sudoeste 14 Sur 0 -- -- 79
2018-01-17 13:00:00 10.1 4 Este 11 Este 0 -- -- 88
2018-01-17 12:00:00 8.4 4 Norte 8 Nordeste 0 -- -- 93
2018-01-17 11:00:00 8.4 3 Nordeste 7 Sudeste 0 -- -- 93
2018-01-17 10:00:00 7 0 Calma 4 Oeste 0 -- -- 97
2018-01-17 09:00:00 6.3 2 Este 6 Este 0 -- -- 97
2018-01-17 08:00:00 6.9 4 Sudeste 12 Norte 0 -- -- 97
2018-01-17 07:00:00 6.2 2 Noroeste 12 Nordeste 0 -- -- 98
2018-01-17 06:00:00 6.2 6 Este 9 Este 0 -- -- 94
2018-01-17 05:00:00 8 5 Nordeste 14 Nordeste 0 -- -- 94
2018-01-17 04:00:00 7.5 3 Norte 6 Nordeste 0 -- -- 99
2018-01-17 03:00:00 6 2 Nordeste 8 Nordeste 0 -- -- 99
2018-01-17 02:00:00 3.8 5 Sudeste 13 Noroeste 0 -- -- 98
2018-01-17 01:00:00 4.2 4 Este 10 Este 0 -- -- 98
2018-01-17 00:00:00 5.2 2 Norte 6 Este 0 -- -- 96
2018-01-16 23:00:00 5.8 3 Este 6 Nordeste 0 -- -- 89
2018-01-16 22:00:00 7 0 Calma 7 Noroeste 0 -- -- 89
2018-01-16 21:00:00 8 2 Este 8 Este 0 -- -- 85
2018-01-16 20:00:00 7.5 2 Nordeste 8 Oeste 0 -- -- 86
2018-01-16 19:00:00 9.7 0 Calma 6 Norte 0 -- -- 76
2018-01-16 18:00:00 12.2 2 Norte 7 Sudeste 0 -- -- 67
2018-01-16 17:00:00 13.6 3 Sudeste 8 Sudeste 0 -- -- 62
2018-01-16 16:00:00 13.2 3 Este 9 Sudeste 0 -- -- 62
2018-01-16 15:00:00 12.7 3 Sur 11 Sudeste 0 -- -- 63
2018-01-16 14:00:00 11.4 5 Sudeste 13 Sudeste 0 -- -- 65
2018-01-16 13:00:00 10.6 4 Este 10 Este 0 -- -- 68
2018-01-16 12:00:00 8.9 5 Este 9 Este 0 -- -- 69
2018-01-16 11:00:00 7.1 4 Sudeste 9 Este 0 -- -- 80
2018-01-16 10:00:00 4.2 4 Este 7 Sudeste 0 -- -- 88
2018-01-16 09:00:00 1.2 2 Nordeste 6 Norte 0 -- -- 96
2018-01-16 08:00:00 0.4 3 Nordeste 6 Este 0 -- -- 96
2018-01-16 07:00:00 1.1 0 Calma 6 Este 0 -- -- 95
2018-01-16 06:00:00 1.4 3 Este 7 Sudeste 0 -- -- 95
2018-01-16 05:00:00 1.6 4 Este 7 Este 0 -- -- 94
2018-01-16 04:00:00 2.2 3 Norte 8 Este 0 -- -- 95
2018-01-16 03:00:00 2.5 4 Noroeste 8 Noroeste 0 -- -- 95
2018-01-16 02:00:00 1.8 0 Calma 5 Este 0 -- -- 92
2018-01-16 01:00:00 2.3 2 Oeste 7 Nordeste 0 -- -- 91
2018-01-16 00:00:00 2 4 Este 9 Este 0 -- -- 94
2018-01-15 23:00:00 3.2 2 Norte 11 Norte 0 -- -- 86
2018-01-15 22:00:00 3.3 0 Calma 6 Noroeste 0 -- -- 93
2018-01-15 21:00:00 3.5 3 Norte 7 Norte 0 -- -- 90
2018-01-15 20:00:00 4.9 3 Norte 7 Norte 0 -- -- 83
2018-01-15 19:00:00 6.1 3 Oeste 6 Sudoeste 0 -- -- 80
2018-01-15 18:00:00 8.5 4 Sudoeste 10 Sur 0 -- -- 69
2018-01-15 17:00:00 9.8 7 Sur 12 Sudoeste 0 -- -- 68
2018-01-15 16:00:00 9.7 7 Sur 14 Sudoeste 0 -- -- 63
2018-01-15 15:00:00 9.6 6 Sur 10 Sudoeste 0 -- -- 65
2018-01-15 14:00:00 8.8 5 Sur 10 Sudeste 0 -- -- 67
2018-01-15 13:00:00 7.1 4 Sur 8 Sur 0 -- -- 76
2018-01-15 12:00:00 5.2 3 Sur 8 Sur 0 -- -- 85
2018-01-15 11:00:00 2.7 3 Sur 7 Este 0 -- -- 91
2018-01-15 10:00:00 0.6 0 Calma 4 Este 0 -- -- 98
2018-01-15 09:00:00 -2.2 0 Calma 4 Norte 0 -- -- 98
2018-01-15 08:00:00 -2.2 0 Calma 5 Este 0 -- -- 98
2018-01-15 07:00:00 -1.6 0 Calma 8 Este 0 -- -- 98
2018-01-15 06:00:00 -1.4 2 Noroeste 5 Este 0 -- -- 98
2018-01-15 05:00:00 -1.5 3 Este 8 Este 0 -- -- 97
2018-01-15 04:00:00 -1 -- -- -- -- 0 -- -- 95
2018-01-15 03:00:00 -0.4 2 Norte 6 Nordeste 0 -- -- 95
2018-01-15 02:00:00 0.5 0 Calma 5 Este 0 -- -- 96
2018-01-15 01:00:00 -0.5 4 Nordeste 7 Este 0 -- -- 94
2018-01-15 00:00:00 0.9 2 Oeste 6 Este 0 -- -- 91
2018-01-14 23:00:00 0.6 3 Nordeste 5 Sudeste 0 -- -- 92
2018-01-14 22:00:00 1.3 5 Este 7 Este 0 -- -- 91
2018-01-14 21:00:00 3.2 3 Noroeste 8 Norte 0 -- -- 86
2018-01-14 20:00:00 3.3 5 Norte 7 Norte 0 -- -- 89
2018-01-14 19:00:00 4.2 2 Norte 5 Norte 0 -- -- 88
2018-01-14 18:00:00 7 3 Noroeste 8 Sudeste 0 -- -- 77
2018-01-14 17:00:00 7.8 3 Sur 7 Nordeste 0 -- -- 74
2018-01-14 16:00:00 6.9 5 Este 15 Sudeste 0 -- -- 79
2018-01-14 15:00:00 6.2 5 Este 11 Este 0 -- -- 85
2018-01-14 14:00:00 6 4 Sudeste 9 Sudeste 0 -- -- 88
2018-01-14 13:00:00 5.8 5 Sudeste 10 Sur 0 -- -- 89
2018-01-14 12:00:00 5.6 3 Sudeste 6 Sudeste 0 -- -- 93
2018-01-14 11:00:00 5.1 3 Nordeste 6 Nordeste 0 -- -- 96
2018-01-14 10:00:00 4.1 2 Nordeste 5 Este 0 -- -- 98
2018-01-14 09:00:00 3.9 4 Nordeste 7 Este 0 -- -- 97
2018-01-14 08:00:00 4.6 4 Nordeste 8 Este 0 -- -- 98
2018-01-14 07:00:00 4.8 4 Este 8 Nordeste 0 -- -- 98
2018-01-14 06:00:00 4.7 5 Este 9 Este 0 -- -- 98
2018-01-14 05:00:00 4.7 0 Calma 5 Este 0 -- -- 99
2018-01-14 04:00:00 4.6 4 Este 6 Este 0 -- -- 99
2018-01-14 03:00:00 4.6 0 Calma 7 Sudoeste 0 -- -- 99
2018-01-14 02:00:00 4.5 3 Sudeste 11 Sudoeste 0 -- -- 99
2018-01-14 01:00:00 4.3 2 Noroeste 5 Este 0 -- -- 99
2018-01-14 00:00:00 4.2 0 Calma 5 Nordeste 0 -- -- 99
2018-01-13 23:00:00 4.8 2 Este 5 Este 0 -- -- 99
2018-01-13 22:00:00 4.8 2 Este 3 Sur 0 -- -- 98
2018-01-13 21:00:00 5 2 Norte 3 Norte 0 -- -- 98
2018-01-13 20:00:00 5 0 Calma 3 Sur 0 -- -- 98
2018-01-13 19:00:00 4.9 0 Calma 8 Sudoeste 0 -- -- 97
2018-01-13 18:00:00 5.1 4 Sudoeste 9 Sudoeste 0 -- -- 96
2018-01-13 17:00:00 5.6 5 Sur 7 Sudoeste 0 -- -- 95
2018-01-13 16:00:00 5.4 3 Oeste 6 Noroeste 0.4 -- -- 96
2018-01-13 15:00:00 4.8 3 Nordeste 6 Nordeste 1.4 -- -- 94
2018-01-13 14:00:00 4.6 3 Este 15 Este 0.2 -- -- 95
2018-01-13 13:00:00 4 6 Nordeste 10 Nordeste 2.2 -- -- 98
2018-01-13 12:00:00 3.4 3 Sudeste 6 Este 1.6 -- -- 98
2018-01-13 11:00:00 2.9 2 Oeste 9 Nordeste 0.8 -- -- 98
2018-01-13 10:00:00 2 5 Este 9 Este 0 -- -- 96
2018-01-13 09:00:00 1.4 0 Calma 8 Este 0 -- -- 99
2018-01-13 08:00:00 1.5 2 Sudeste 3 Sudeste 0 -- -- 93
2018-01-13 07:00:00 1.8 3 Nordeste 4 Nordeste 0 -- -- 96
2018-01-13 06:00:00 2.6 4 Norte 9 Norte 0 -- -- 94
2018-01-13 05:00:00 1.7 3 Este 4 Sudeste 0 -- -- 95
2018-01-13 04:00:00 2.1 3 Nordeste 5 Nordeste 0 -- -- 95
2018-01-13 03:00:00 2.3 3 Nordeste 5 Nordeste 0 -- -- 94
2018-01-13 02:00:00 3 0 Calma 3 Nordeste 0 -- -- 91
2018-01-13 01:00:00 3.1 3 Este 4 Este 0 -- -- 90
2018-01-13 00:00:00 3.5 3 Este 6 Norte 0 -- -- 88
2018-01-12 23:00:00 3.6 2 Nordeste 3 Este 0 -- -- 89
2018-01-12 22:00:00 4.3 2 Este 3 Este 0 -- -- 85
2018-01-12 21:00:00 5.4 2 Este 2 Nordeste 0 -- -- 83
2018-01-12 20:00:00 6.2 0 Calma 2 Norte 0 -- -- 81
2018-01-12 19:00:00 7 0 Calma 2 Norte 0 -- -- 79
2018-01-12 18:00:00 8.3 0 Calma 5 Sudoeste 0 -- -- 72
2018-01-12 17:00:00 8.9 4 Sudoeste 10 Sudoeste 0 -- -- 67
2018-01-12 16:00:00 9.3 7 Sudoeste 12 Sudoeste 0 -- -- 62
2018-01-12 15:00:00 10.3 8 Sudoeste 14 Sudoeste 0 -- -- 58
2018-01-12 14:00:00 10.3 4 Sudoeste 13 Sur 0 -- -- 56
2018-01-12 13:00:00 8.5 0 Calma 6 Este 0 -- -- 66
2018-01-12 12:00:00 5.8 3 Este 5 Este 0 -- -- 75
2018-01-12 11:00:00 2.9 0 Calma 6 Este 0 -- -- 88
2018-01-12 10:00:00 0.6 2 Sudeste 6 Este 0 -- -- 92
2018-01-12 09:00:00 -1.7 2 Nordeste 7 Nordeste 0 -- -- 93
2018-01-12 08:00:00 -1.5 5 Este 7 Este 0 -- -- 91
2018-01-12 07:00:00 -1.6 0 Calma 6 Oeste 0 -- -- 92
2018-01-12 06:00:00 -0.9 3 Este 5 Noroeste 0 -- -- 91
2018-01-12 05:00:00 -0.1 3 Noroeste 5 Este 0 -- -- 91
2018-01-12 04:00:00 0 0 Calma 5 Nordeste 0 -- -- 88
2018-01-12 03:00:00 0.3 4 Nordeste 9 Este 0 -- -- 85
2018-01-12 02:00:00 0.8 5 Este 8 Este 0 -- -- 83
2018-01-12 01:00:00 2 3 Nordeste 8 Noroeste 0 -- -- 78
2018-01-12 00:00:00 2.5 6 Nordeste 12 Nordeste 0 -- -- 77
2018-01-11 23:00:00 3.4 4 Este 11 Norte 0 -- -- 71
2018-01-11 22:00:00 4 5 Norte 14 Este 0 -- -- 68
2018-01-11 21:00:00 6.1 5 Norte 12 Norte 0 -- -- 59
2018-01-11 20:00:00 8.8 7 Norte 46 Oeste 0 -- -- 48
2018-01-11 19:00:00 9.4 30 Oeste 53 Oeste 0 -- -- 47
2018-01-11 18:00:00 9.6 33 Oeste 50 Oeste 0 -- -- 48
2018-01-11 17:00:00 11.3 22 Sudoeste 40 Oeste 0 -- -- 45
2018-01-11 16:00:00 10.3 24 Oeste 43 Noroeste 0 -- -- 48
2018-01-11 15:00:00 10.3 20 Oeste 46 Noroeste 0 -- -- 46
2018-01-11 14:00:00 10.2 17 Noroeste 45 Oeste 0 -- -- 47
2018-01-11 13:00:00 10 17 Noroeste 40 Oeste 0 -- -- 47
2018-01-11 12:00:00 10.6 14 Noroeste 40 Oeste 0 -- -- 51
2018-01-11 11:00:00 9.5 25 Oeste 51 Oeste 0 -- -- 59
2018-01-11 10:00:00 7.1 6 Sudoeste 31 Sudoeste 0 -- -- 82
2018-01-11 09:00:00 4.7 12 Sudoeste 27 Oeste 0 -- -- 91
2018-01-11 08:00:00 3.6 3 Norte 17 Sur 0 -- -- 93
2018-01-11 07:00:00 3.3 3 Nordeste 10 Sudoeste 0 -- -- 92
2018-01-11 06:00:00 4.5 0 Calma 7 Nordeste 0 -- -- 90
2018-01-11 05:00:00 5 2 Nordeste 11 Sudeste 0 -- -- 87
2018-01-11 04:00:00 5.1 3 Sur 12 Sur 0 -- -- 86
2018-01-11 03:00:00 5.1 3 Sur 10 Sur 0 -- -- 84
2018-01-11 02:00:00 4.7 3 Este 12 Nordeste 0 -- -- 85
2018-01-11 01:00:00 4.6 9 Oeste 17 Sudoeste 0 -- -- 85
2018-01-11 00:00:00 6.5 8 Sudoeste 25 Sudoeste 0 -- -- 69
2018-01-10 23:00:00 8.2 11 Oeste 32 Oeste 0 -- -- 57
2018-01-10 22:00:00 8.3 24 Sudoeste 32 Oeste 0 -- -- 59
2018-01-10 21:00:00 9 15 Oeste 35 Oeste 0 -- -- 67
2018-01-10 20:00:00 9.1 14 Noroeste 24 Oeste 0 -- -- 68
2018-01-10 19:00:00 7.6 3 Sudeste 10 Sudoeste 0 -- -- 96
2018-01-10 18:00:00 8.6 4 Noroeste 15 Sudoeste 0 -- -- 96
2018-01-10 17:00:00 8.6 9 Sudoeste 17 Sudoeste 0.2 -- -- 97
2018-01-10 16:00:00 7.7 3 Sudoeste 7 Sudoeste 2.6 -- -- 99
2018-01-10 15:00:00 7.4 5 Oeste 8 Oeste 2.4 -- -- 99
2018-01-10 14:00:00 7 2 Noroeste 21 Sudoeste 0 -- -- 99
2018-01-10 13:00:00 7 12 Sudoeste 21 Sudoeste 0 -- -- 100
2018-01-10 12:00:00 5.8 6 Oeste 9 Oeste 0 -- -- 100
2018-01-10 11:00:00 5.5 4 Oeste 8 Sudoeste 0 -- -- 100
2018-01-10 10:00:00 5.3 4 Sudoeste 6 Sudoeste 0 -- -- 100
2018-01-10 09:00:00 5.1 0 Calma 4 Sudoeste 0 -- -- 100
2018-01-10 08:00:00 5.1 3 Oeste 6 Sudoeste 0 -- -- 100
2018-01-10 07:00:00 5.1 3 Sudoeste 5 Sudoeste 0.2 -- -- 100
2018-01-10 06:00:00 4.9 2 Noroeste 5 Oeste 0 -- -- 100
2018-01-10 05:00:00 4.8 4 Oeste 7 Oeste 0 -- -- 100
2018-01-10 04:00:00 4.7 3 Oeste 6 Oeste 0.2 -- -- 100
2018-01-10 03:00:00 4.7 3 Oeste 4 Oeste 0.2 -- -- 100
2018-01-10 02:00:00 4.6 0 Calma 4 Sudeste 0 -- -- 100
2018-01-10 01:00:00 4.5 0 Calma 6 Este 0.2 -- -- 100
2018-01-10 00:00:00 4.4 2 Este 4 Este 0.2 -- -- 100
2018-01-09 23:00:00 4.5 2 Este 4 Sudeste 0.4 -- -- 99
2018-01-09 22:00:00 4.5 3 Este 4 Este 0.4 -- -- 99
2018-01-09 21:00:00 4.5 0 Calma 9 Este 0.8 -- -- 99
2018-01-09 20:00:00 4.4 6 Este 10 Este 0.8 -- -- 99
2018-01-09 19:00:00 4.5 5 Este 10 Este 1 -- -- 98
2018-01-09 18:00:00 5.2 3 Este 5 Noroeste 0.8 -- -- 95
2018-01-09 17:00:00 5.6 4 Noroeste 11 Oeste 0.6 -- -- 90
2018-01-09 16:00:00 5.4 8 Norte 12 Norte 0.2 -- -- 89
2018-01-09 15:00:00 4.7 0 Calma 4 Norte 0 -- -- 88
2018-01-09 14:00:00 4.2 2 Sur 8 Este 0 -- -- 89
2018-01-09 13:00:00 3 5 Nordeste 8 Este 0 -- -- 95
2018-01-09 12:00:00 1.7 3 Nordeste 6 Nordeste 0 -- -- 98
2018-01-09 11:00:00 1.1 0 Calma 4 Nordeste 0 -- -- 97
2018-01-09 10:00:00 0.6 0 Calma 3 Oeste 0 -- -- 98
2018-01-09 09:00:00 -0.3 2 Noroeste 3 Sudeste 0 -- -- 98
2018-01-09 08:00:00 -0.2 3 Nordeste 6 Nordeste 0 -- -- 98
2018-01-09 07:00:00 -0.7 5 Nordeste 6 Nordeste 0 -- -- 97
2018-01-09 06:00:00 -0.9 0 Calma 5 Este 0 -- -- 97
2018-01-09 05:00:00 -0.7 0 Calma 3 Nordeste 0 -- -- 97
2018-01-09 04:00:00 -0.5 0 Calma 6 Este 0 -- -- 97
2018-01-09 03:00:00 -0.3 3 Este 4 Nordeste 0 -- -- 96
2018-01-09 02:00:00 0 3 Este 4 Este 0 -- -- 95
2018-01-09 01:00:00 1.1 3 Este 7 Nordeste 0 -- -- 95
2018-01-09 00:00:00 1.1 3 Este 6 Este 0 -- -- 95
2018-01-08 23:00:00 2.1 0 Calma 3 Nordeste 0 -- -- 91
2018-01-08 22:00:00 2.8 0 Calma 6 Noroeste 0 -- -- 86
2018-01-08 21:00:00 4.9 6 Norte 9 Noroeste 0 -- -- 81
2018-01-08 20:00:00 5 6 Noroeste 8 Noroeste 0 -- -- 82
2018-01-08 19:00:00 6.3 5 Noroeste 6 Oeste 0 -- -- 76
2018-01-08 18:00:00 9 2 Sudoeste 11 Sudoeste 0 -- -- 65
2018-01-08 17:00:00 10.1 5 Sur 10 Sur 0 -- -- 60
2018-01-08 16:00:00 10 5 Sudeste 11 Sudeste 0 -- -- 60
2018-01-08 15:00:00 9.5 4 Sudeste 13 Sudeste 0 -- -- 60
2018-01-08 14:00:00 9.2 6 Sur 16 Sudoeste 0 -- -- 64
2018-01-08 13:00:00 7.8 6 Sudoeste 12 Sudoeste 0 -- -- 72
2018-01-08 12:00:00 6.5 4 Oeste 7 Oeste 0 -- -- 74
2018-01-08 11:00:00 4.8 2 Nordeste 5 Nordeste 0 -- -- 83
2018-01-08 10:00:00 2.5 0 Calma 3 Sudeste 0 -- -- 93
2018-01-08 09:00:00 0.3 0 Calma 5 Noroeste 0 -- -- 93
2018-01-08 08:00:00 0.5 4 Sudoeste 8 Noroeste 0 -- -- 92
2018-01-08 07:00:00 1.9 0 Calma 5 Norte 0 -- -- 86
2018-01-08 06:00:00 2 4 Nordeste 8 Nordeste 0 -- -- 89
2018-01-08 05:00:00 3.1 3 Nordeste 21 Nordeste 0 -- -- 86
2018-01-08 04:00:00 3.5 12 Nordeste 20 Nordeste 0 -- -- 88
2018-01-08 03:00:00 3.7 8 Este 15 Este 0 -- -- 90
2018-01-08 02:00:00 3.8 4 Oeste 20 Nordeste 0.6 -- -- 94
2018-01-08 01:00:00 3.9 14 Este 25 Este 0.6 -- -- 91
2018-01-08 00:00:00 3.9 19 Este 33 Este 0.2 -- -- 90
2018-01-07 23:00:00 3.8 4 Nordeste 18 Nordeste 0.6 -- -- 93
2018-01-07 22:00:00 3.3 3 Oeste 6 Noroeste 0.4 -- -- 95
2018-01-07 21:00:00 3.4 3 Oeste 8 Oeste 1.2 -- -- 95
2018-01-07 20:00:00 3.4 0 Calma 15 Este 2 -- -- 94
2018-01-07 19:00:00 4.1 10 Este 23 Este 1.8 -- -- 93
2018-01-07 18:00:00 5.9 7 Sudeste 21 Este 0.8 -- -- 85
2018-01-07 17:00:00 7.2 5 Sur 10 Sudeste 0 -- -- 74
2018-01-07 16:00:00 7.9 3 Sudeste 12 Este 0 -- -- 64
2018-01-07 15:00:00 8.1 6 Este 10 Este 0 -- -- 67
2018-01-07 14:00:00 7.5 6 Este 10 Este 0 -- -- 72
2018-01-07 13:00:00 7 5 Nordeste 15 Nordeste 0 -- -- 74
2018-01-07 12:00:00 6.9 6 Nordeste 13 Nordeste 0 -- -- 74
2018-01-07 11:00:00 7 8 Este 15 Nordeste 0 -- -- 73
2018-01-07 10:00:00 5.6 6 Este 11 Este 0 -- -- 77
2018-01-07 09:00:00 5.5 8 Este 19 Nordeste 0 -- -- 76
2018-01-07 08:00:00 5.4 3 Noroeste 10 Oeste 0 -- -- 76
2018-01-07 07:00:00 5.5 4 Oeste 13 Sudeste 0 -- -- 74
2018-01-07 06:00:00 5.5 6 Sur 21 Sur 0 -- -- 76
2018-01-07 05:00:00 6.3 10 Sur 22 Sudeste 0 -- -- 63
2018-01-07 04:00:00 7.3 9 Sudeste 26 Oeste 0 -- -- 57
2018-01-07 03:00:00 7.1 8 Sudoeste 19 Sur 0 -- -- 57
2018-01-07 02:00:00 7.4 5 Sur 31 Oeste 0 -- -- 55
2018-01-07 01:00:00 7.7 6 Sudeste 16 Sudeste 0 -- -- 51
2018-01-07 00:00:00 7.6 6 Oeste 34 Noroeste 0 -- -- 54
2018-01-06 23:00:00 7.9 13 Oeste 39 Oeste 0 -- -- 53
2018-01-06 22:00:00 7.5 24 Oeste 42 Oeste 0 -- -- 55
2018-01-06 21:00:00 7.5 23 Oeste 39 Oeste 0 -- -- 54
2018-01-06 20:00:00 6.7 4 Norte 19 Oeste 0 -- -- 70
2018-01-06 19:00:00 7.3 7 Oeste 18 Sur 0 -- -- 71
2018-01-06 18:00:00 7.9 9 Sur 15 Sur 0 -- -- 70
2018-01-06 17:00:00 8.2 5 Sudeste 12 Sudeste 0 -- -- 78
2018-01-06 16:00:00 8.2 5 Sudeste 12 Sur 0 -- -- 82
2018-01-06 15:00:00 7.7 6 Nordeste 15 Nordeste 0 -- -- 88
2018-01-06 14:00:00 7.5 4 Sudeste 10 Sur 0 -- -- 92
2018-01-06 13:00:00 7.3 3 Sur 6 Sudoeste 0 -- -- 94
2018-01-06 12:00:00 6.9 3 Sur 8 Sudoeste 0 -- -- 97
2018-01-06 11:00:00 6.4 3 Sur 10 Sudoeste 0 -- -- 100
2018-01-06 10:00:00 5.6 3 Sudoeste 6 Oeste 0 -- -- 99
2018-01-06 09:00:00 5.6 3 Oeste 5 Sudoeste 0 -- -- 98
2018-01-06 08:00:00 5.8 0 Calma 6 Norte 0 -- -- 98
2018-01-06 07:00:00 5.9 3 Nordeste 6 Nordeste 0 -- -- 99
2018-01-06 06:00:00 6 0 Calma 3 Norte 0 -- -- 98
2018-01-06 05:00:00 6.2 0 Calma 4 Sudoeste 0 -- -- 98
2018-01-06 04:00:00 6.5 3 Nordeste 7 Este 0 -- -- 97
2018-01-06 03:00:00 6.8 0 Calma 6 Nordeste 0 -- -- 97
2018-01-06 02:00:00 7.2 5 Nordeste 8 Nordeste 0.2 -- -- 98
2018-01-06 01:00:00 7.5 2 Noroeste 13 Sur 1 -- -- 98
2018-01-06 00:00:00 8 5 Sudoeste 10 Sudoeste 0.8 -- -- 99
2018-01-05 23:00:00 8.2 2 Nordeste 6 Nordeste 0.4 -- -- 99
2018-01-05 22:00:00 8.1 4 Nordeste 6 Nordeste 0.2 -- -- 98
2018-01-05 21:00:00 8.8 0 Calma 4 Sudoeste 0.8 -- -- 98
2018-01-05 20:00:00 9.1 3 Noroeste 6 Noroeste 1.4 -- -- 97
2018-01-05 19:00:00 9.8 2 Oeste 8 Oeste 1.4 -- -- 99
2018-01-05 18:00:00 9.8 6 Oeste 14 Oeste 5.2 -- -- 99
2018-01-05 17:00:00 10 2 Nordeste 5 Nordeste 3 -- -- 98
2018-01-05 16:00:00 10.1 2 Este 5 Noroeste 3.6 -- -- 98
2018-01-05 15:00:00 10 4 Noroeste 10 Noroeste 4.8 -- -- 99
2018-01-05 14:00:00 9.9 6 Noroeste 16 Oeste 3.6 -- -- 99
2018-01-05 13:00:00 9.9 8 Noroeste 19 Oeste 3 -- -- 98
2018-01-05 12:00:00 10 10 Noroeste 16 Noroeste 1.8 -- -- 98
2018-01-05 11:00:00 9.8 7 Noroeste 17 Oeste 1 -- -- 97
2018-01-05 10:00:00 9.8 7 Noroeste 16 Oeste 0.2 -- -- 95
2018-01-05 09:00:00 10.4 10 Oeste 16 Noroeste 0 -- -- 87
2018-01-05 08:00:00 10.3 13 Oeste 25 Sudoeste 0 -- -- 88
2018-01-05 07:00:00 10.7 19 Sudoeste 30 Sudoeste 0 -- -- 84
2018-01-05 06:00:00 10.7 18 Sudoeste 31 Sudoeste 0 -- -- 87
2018-01-05 05:00:00 10.8 16 Sudoeste 28 Sudoeste 0 -- -- 86
2018-01-05 04:00:00 10.8 8 Sudoeste 17 Oeste 0 -- -- 83
2018-01-05 03:00:00 10.4 10 Oeste 18 Sudoeste 0 -- -- 87
2018-01-05 02:00:00 10.4 8 Oeste 18 Oeste 0 -- -- 90
2018-01-05 01:00:00 10.7 12 Oeste 22 Oeste 0 -- -- 89
2018-01-05 00:00:00 10.7 7 Oeste 15 Oeste 0 -- -- 91
2018-01-04 23:00:00 11.8 6 Oeste 22 Oeste 0 -- -- 86
2018-01-04 22:00:00 11.6 6 Sudoeste 14 Sudoeste 0 -- -- 86
2018-01-04 21:00:00 12.2 4 Oeste 10 Sudoeste 0 -- -- 85
2018-01-04 20:00:00 11.8 0 Calma 4 Oeste 0 -- -- 89
2018-01-04 19:00:00 12.6 0 Calma 6 Nordeste 0 -- -- 87
2018-01-04 18:00:00 13.5 3 Nordeste 6 Nordeste 0 -- -- 87
2018-01-04 17:00:00 13.8 0 Calma 5 Noroeste 0 -- -- 85
2018-01-04 16:00:00 13.2 3 Norte 5 Este 0 -- -- 88
2018-01-04 15:00:00 12.8 4 Este 9 Este 0 -- -- 89
2018-01-04 14:00:00 12.4 4 Este 7 Este 0 -- -- 91
2018-01-04 13:00:00 12.2 0 Calma 7 Oeste 0 -- -- 90
2018-01-04 12:00:00 11.7 2 Este 8 Este 0 -- -- 96
2018-01-04 11:00:00 10.9 4 Norte 5 Norte 0 -- -- 99
2018-01-04 10:00:00 10.5 2 Este 5 Este 0 -- -- 99
2018-01-04 09:00:00 10.4 0 Calma 4 Sudeste 0 -- -- 98
2018-01-04 08:00:00 10.4 0 Calma 4 Este 0 -- -- 97
2018-01-04 07:00:00 10.7 0 Calma 4 Sur 0 -- -- 96
2018-01-04 06:00:00 10.9 3 Sur 7 Sur 0 -- -- 94
2018-01-04 05:00:00 11.1 2 Oeste 4 Oeste 0 -- -- 94
2018-01-04 04:00:00 11.2 0 Calma 4 Nordeste 0 -- -- 94
2018-01-04 03:00:00 11.3 3 Sudeste 6 Noroeste 0 -- -- 93
2018-01-04 02:00:00 11.5 4 Noroeste 6 Noroeste 0 -- -- 93
2018-01-04 01:00:00 11.5 0 Calma 5 Nordeste 0 -- -- 93
2018-01-04 00:00:00 11.4 4 Este 6 Nordeste 0 -- -- 93
2018-01-03 23:00:00 11.5 4 Nordeste 7 Nordeste 0 -- -- 94
2018-01-03 22:00:00 11.4 4 Nordeste 6 Este 0 -- -- 94
2018-01-03 21:00:00 11.2 2 Nordeste 5 Este 0 -- -- 94
2018-01-03 20:00:00 11.4 3 Oeste 8 Sudoeste 0 -- -- 93
2018-01-03 19:00:00 10.8 3 Nordeste 4 Nordeste 0 -- -- 92
2018-01-03 18:00:00 12.1 0 Calma 6 Noroeste 0 -- -- 88
2018-01-03 17:00:00 12.1 0 Calma 10 Sudoeste 0 -- -- 88
2018-01-03 16:00:00 12 2 Nordeste 9 Norte 0 -- -- 88
2018-01-03 15:00:00 11.5 3 Nordeste 6 Este 0 -- -- 90
2018-01-03 14:00:00 11.3 2 Nordeste 8 Este 0 -- -- 90
2018-01-03 13:00:00 11.1 5 Este 9 Nordeste 0 -- -- 91
2018-01-03 12:00:00 11 3 Este 10 Este 0 -- -- 91
2018-01-03 11:00:00 10.8 4 Nordeste 10 Este 0 -- -- 93
2018-01-03 10:00:00 10.5 7 Este 10 Este 0 -- -- 94
2018-01-03 09:00:00 10.4 6 Este 11 Este 0 -- -- 94
2018-01-03 08:00:00 10.3 5 Nordeste 13 Este 0 -- -- 95
2018-01-03 07:00:00 10.5 2 Norte 7 Nordeste 0 -- -- 94
2018-01-03 06:00:00 10.6 4 Este 9 Este 0 -- -- 94
2018-01-03 05:00:00 10.6 0 Calma 7 Sudeste 0 -- -- 92
2018-01-03 04:00:00 10.9 2 Nordeste 6 Nordeste 0 -- -- 91
2018-01-03 03:00:00 10.7 3 Nordeste 7 Nordeste 0 -- -- 91
2018-01-03 02:00:00 10.4 3 Nordeste 5 Nordeste 0 -- -- 91
2018-01-03 01:00:00 10.5 0 Calma 9 Este 0 -- -- 90
2018-01-03 00:00:00 10.7 3 Nordeste 9 Este 0 -- -- 88
2018-01-02 23:00:00 10.8 6 Este 13 Este 0 -- -- 88
2018-01-02 22:00:00 10.6 4 Este 9 Este 0 -- -- 87
2018-01-02 21:00:00 10.4 4 Nordeste 11 Este 0 -- -- 87
2018-01-02 20:00:00 10.8 8 Este 12 Este 0 -- -- 85
2018-01-02 19:00:00 11.1 0 Calma 5 Nordeste 0 -- -- 81
2018-01-02 18:00:00 12.2 0 Calma 4 Norte 0 -- -- 75
2018-01-02 17:00:00 13.4 0 Calma 10 Sudeste 0 -- -- 70
2018-01-02 16:00:00 13.7 4 Sudeste 11 Noroeste 0 -- -- 70
2018-01-02 15:00:00 12.5 5 Noroeste 12 Oeste 0 -- -- 74
2018-01-02 14:00:00 11.4 3 Oeste 11 Norte 0 -- -- 81
2018-01-02 13:00:00 9.7 4 Norte 9 Norte 0 -- -- 87
2018-01-02 12:00:00 8.8 3 Nordeste 8 Sudeste 0 -- -- 89
2018-01-02 11:00:00 8 3 Nordeste 8 Este 0 -- -- 95
2018-01-02 10:00:00 6.6 0 Calma 8 Nordeste 0 -- -- 96
2018-01-02 09:00:00 6 4 Norte 15 Este 0 -- -- 96
2018-01-02 08:00:00 6.6 9 Este 15 Este 0 -- -- 97
2018-01-02 07:00:00 6.2 4 Norte 17 Este 0 -- -- 96
2018-01-02 06:00:00 7.1 6 Nordeste 14 Nordeste 0 -- -- 98
2018-01-02 05:00:00 6.9 5 Este 12 Este 0 -- -- 98
2018-01-02 04:00:00 6.1 5 Nordeste 14 Este 0 -- -- 97
2018-01-02 03:00:00 5.4 4 Este 8 Nordeste 0 -- -- 97
2018-01-02 02:00:00 6.5 3 Nordeste 5 Norte 0 -- -- 95
2018-01-02 01:00:00 7.2 3 Norte 7 Este 0 -- -- 95
2018-01-02 00:00:00 6.5 4 Nordeste 12 Norte 0 -- -- 95
2018-01-01 23:00:00 7.2 3 Nordeste 6 Nordeste 0 -- -- 91
2018-01-01 22:00:00 9.4 0 Calma 13 Este 0 -- -- 88
2018-01-01 21:00:00 9.6 3 Este 18 Nordeste 0 -- -- 86
2018-01-01 20:00:00 9.5 7 Nordeste 15 Nordeste 0 -- -- 84
2018-01-01 19:00:00 9.7 4 Norte 9 Sudeste 0 -- -- 83
2018-01-01 18:00:00 11.5 4 Sudeste 16 Sudoeste 0 -- -- 74
2018-01-01 17:00:00 13 4 Este 21 Sudeste 0 -- -- 68
2018-01-01 16:00:00 12.5 2 Nordeste 15 Nordeste 0 -- -- 70
2018-01-01 15:00:00 12.4 7 Nordeste 20 Sudoeste 0 -- -- 71
2018-01-01 14:00:00 10.8 3 Sur 9 Noroeste 0 -- -- 72
2018-01-01 13:00:00 8.8 3 Este 9 Sur 0 -- -- 76
2018-01-01 12:00:00 7.8 3 Este 10 Este 0 -- -- 78
2018-01-01 11:00:00 6.5 4 Este 8 Este 0 -- -- 79
2018-01-01 10:00:00 3.1 0 Calma 4 Oeste 0 -- -- 92
2018-01-01 09:00:00 1.1 0 Calma 5 Sudeste 0 -- -- 94
2018-01-01 08:00:00 1.6 4 Este 6 Sudeste 0 -- -- 89
2018-01-01 07:00:00 1.4 5 Norte 10 Este 0 -- -- 93
2018-01-01 06:00:00 2.5 4 Nordeste 9 Noroeste 0 -- -- 86
2018-01-01 05:00:00 1.7 2 Nordeste 13 Sudeste 0 -- -- 91
2018-01-01 04:00:00 4.1 6 Norte 11 Norte 0 -- -- 82
2018-01-01 03:00:00 4.1 3 Nordeste 15 Este 0 -- -- 79
2018-01-01 02:00:00 5.4 6 Este 20 Sudeste 0 -- -- 75
2018-01-01 01:00:00 7.8 4 Este 37 Oeste 0 -- -- 60
2018-01-01 00:00:00 9.5 12 Sudoeste 27 Sudoeste 0 -- -- 52
2017-12-31 23:00:00 9 15 Sudoeste 26 Sudoeste 0 -- -- 66
2017-12-31 22:00:00 10.5 17 Sudoeste 31 Sudoeste 0 -- -- 52
2017-12-31 21:00:00 10.6 14 Sudoeste 37 Oeste 0 -- -- 53
2017-12-31 20:00:00 10.9 24 Oeste 50 Oeste 0 -- -- 58
2017-12-31 19:00:00 10.4 17 Oeste 37 Oeste 0 -- -- 75
2017-12-31 18:00:00 10.6 12 Oeste 31 Sudoeste 0 -- -- 97
2017-12-31 17:00:00 10.8 6 Sudoeste 19 Sudoeste 1.2 -- -- 98
2017-12-31 16:00:00 10.5 6 Oeste 12 Sudoeste 1.2 -- -- 98
2017-12-31 15:00:00 10.6 8 Oeste 13 Sudoeste 0.2 -- -- 94
2017-12-31 14:00:00 10.4 10 Oeste 19 Oeste 0.4 -- -- 95
2017-12-31 13:00:00 10.9 15 Oeste 24 Sudoeste 0 -- -- 90
2017-12-31 12:00:00 10.5 13 Oeste 22 Oeste 0 -- -- 91
2017-12-31 11:00:00 9.5 5 Sudoeste 10 Sudoeste 0 -- -- 92
2017-12-31 10:00:00 9.3 2 Sudoeste 4 Sudoeste 0 -- -- 94
2017-12-31 09:00:00 7.2 4 Oeste 5 Oeste 0 -- -- 96
2017-12-31 08:00:00 6.9 0 Calma 7 Noroeste 0 -- -- 95
2017-12-31 07:00:00 6.5 3 Noroeste 6 Oeste 0 -- -- 98
2017-12-31 06:00:00 7.1 4 Este 7 Norte 0 -- -- 97
2017-12-31 05:00:00 7 5 Este 9 Sudeste 0 -- -- 96
2017-12-31 04:00:00 7.4 3 Este 3 Este 0 -- -- 95
2017-12-31 03:00:00 8.1 0 Calma 4 Nordeste 0 -- -- 96
2017-12-31 02:00:00 8 2 Nordeste 8 Este 0 -- -- 97
2017-12-31 01:00:00 8.4 5 Este 7 Este 0 -- -- 91